Time;durP1;ratioP1;P1;durP2;ratioP2;P2;SDS_P1;SDS_P2;PMS_P1;PMS_P2;Temp;Humidity;BMP_temperature;BMP_pressure;BME280_temperature;BME280_humidity;BME280_pressure;Samples;Min_cycle;Max_cycle;Signal;HPM_P1;HPM_P2
2021/12/20 00:01:14;;;;;;;15.77;8.55;;;-3.60;99.90;;;;;;5017440;28;20028;-67
2021/12/20 00:03:40;;;;;;;15.32;8.48;;;-3.50;99.90;;;;;;5014467;28;20180;-67
2021/12/20 00:06:06;;;;;;;18.38;8.77;;;-3.50;99.90;;;;;;5016095;28;20061;-67
2021/12/20 00:08:32;;;;;;;16.13;8.38;;;-3.40;99.90;;;;;;5015285;28;20093;-67
2021/12/20 00:10:58;;;;;;;16.38;8.25;;;-3.40;99.90;;;;;;5014610;28;20462;-67
2021/12/20 00:13:24;;;;;;;18.05;8.27;;;-3.40;99.90;;;;;;5016210;28;20177;-67
2021/12/20 00:15:50;;;;;;;21.02;9.60;;;-3.40;99.90;;;;;;5015232;28;20030;-67
2021/12/20 00:18:16;;;;;;;23.75;11.23;;;-3.40;99.90;;;;;;5014251;28;20367;-67
2021/12/20 00:20:41;;;;;;;20.05;10.32;;;-3.50;99.90;;;;;;5030399;28;20048;-67
2021/12/20 00:23:08;;;;;;;20.00;9.07;;;-3.50;99.90;;;;;;5014051;28;20030;-68
2021/12/20 00:25:34;;;;;;;20.58;9.30;;;-3.50;99.90;;;;;;5013919;28;20030;-68
2021/12/20 00:28:00;;;;;;;22.33;10.40;;;-3.40;99.90;;;;;;5014158;28;20445;-68
2021/12/20 00:30:27;;;;;;;24.13;11.15;;;-3.40;99.90;;;;;;5014574;28;20088;-68
2021/12/20 00:32:53;;;;;;;23.90;10.20;;;-3.30;99.90;;;;;;5014496;28;20084;-68
2021/12/20 00:35:24;;;;;;;22.52;11.35;;;-3.30;99.90;;;;;;5013947;28;20022;-67
2021/12/20 00:40:34;;;;;;;19.95;10.57;;;-3.20;99.90;;;;;;5015733;28;20382;-67
2021/12/20 00:43:02;;;;;;;20.70;10.35;;;-3.10;99.90;;;;;;5015419;28;20478;-67
2021/12/20 00:45:32;;;;;;;21.45;10.68;;;-3.10;99.90;;;;;;5015838;28;20026;-67
2021/12/20 00:47:58;;;;;;;22.23;9.93;;;-3.00;99.90;;;;;;5015985;28;20096;-67
2021/12/20 00:50:25;;;;;;;24.00;10.43;;;-3.00;99.90;;;;;;5030380;28;20030;-67
2021/12/20 00:52:51;;;;;;;20.73;9.68;;;-3.00;99.90;;;;;;5015191;28;20030;-67
2021/12/20 00:55:20;;;;;;;23.25;10.45;;;-2.90;99.90;;;;;;5030296;28;20032;-67
2021/12/20 00:57:47;;;;;;;24.95;10.30;;;-2.90;99.90;;;;;;5015457;28;20463;-68
2021/12/20 01:00:24;;;;;;;21.95;9.20;;;-2.80;99.90;;;;;;5030297;28;20073;-67
2021/12/20 01:02:51;;;;;;;19.95;9.15;;;-2.80;99.90;;;;;;5013805;28;20088;-67
2021/12/20 01:05:18;;;;;;;20.77;9.85;;;-2.70;99.90;;;;;;5015235;28;20026;-67
2021/12/20 01:07:44;;;;;;;17.08;8.52;;;-2.80;99.90;;;;;;5015288;28;20045;-67
2021/12/20 01:10:10;;;;;;;17.98;8.70;;;-2.70;99.90;;;;;;5015358;28;20026;-67
2021/12/20 01:12:49;;;;;;;17.33;8.73;;;-2.70;99.90;;;;;;5014994;28;20101;-67
2021/12/20 01:15:23;;;;;;;18.02;8.68;;;-2.70;99.90;;;;;;5013659;28;20022;-67
2021/12/20 01:17:50;;;;;;;17.20;7.85;;;-2.70;99.90;;;;;;5015655;28;20025;-68
2021/12/20 01:20:16;;;;;;;19.65;8.20;;;-2.60;99.90;;;;;;5015083;28;20064;-67
2021/12/20 01:22:46;;;;;;;17.40;8.45;;;-2.60;99.90;;;;;;5014618;28;20049;-67
2021/12/20 01:25:13;;;;;;;18.50;8.88;;;-2.60;99.90;;;;;;5014658;28;20541;-67
2021/12/20 01:27:39;;;;;;;17.08;8.38;;;-2.60;99.90;;;;;;5013236;28;20034;-68
2021/12/20 01:30:07;;;;;;;18.88;8.82;;;-2.60;99.90;;;;;;5014611;28;20422;-68
2021/12/20 01:32:33;;;;;;;17.10;8.75;;;-2.60;99.90;;;;;;5029835;28;20030;-67
2021/12/20 01:34:58;;;;;;;17.50;8.85;;;-2.70;99.90;;;;;;5014880;28;20018;-67
2021/12/20 01:37:24;;;;;;;18.30;8.52;;;-2.60;99.90;;;;;;5012966;28;20030;-68
2021/12/20 01:39:52;;;;;;;18.65;9.23;;;-2.70;99.90;;;;;;5014415;28;20052;-67
2021/12/20 01:42:22;;;;;;;18.38;8.18;;;-2.70;99.90;;;;;;5029612;28;20046;-67
2021/12/20 01:44:49;;;;;;;18.73;9.32;;;-2.70;99.90;;;;;;5013174;28;20037;-67
2021/12/20 01:47:16;;;;;;;17.00;8.93;;;-2.70;99.90;;;;;;5014863;28;20026;-67
2021/12/20 01:49:58;;;;;;;16.35;8.30;;;-2.70;99.90;;;;;;5014300;28;20088;-67
2021/12/20 01:52:27;;;;;;;16.65;8.13;;;-2.70;99.90;;;;;;5013323;28;20029;-67
2021/12/20 01:54:54;;;;;;;17.80;8.80;;;-2.70;99.90;;;;;;5014919;28;20053;-68
2021/12/20 01:57:21;;;;;;;19.13;8.98;;;-2.70;99.90;;;;;;5014830;28;20496;-68
2021/12/20 01:59:47;;;;;;;18.48;8.93;;;-2.70;99.90;;;;;;5014283;28;20389;-68
2021/12/20 02:02:13;;;;;;;16.08;8.23;;;-2.70;99.90;;;;;;5012883;28;20033;-68
2021/12/20 02:04:46;;;;;;;17.90;8.65;;;-2.70;99.90;;;;;;5014482;28;20022;-67
2021/12/20 02:07:37;;;;;;;17.77;8.88;;;-2.70;99.90;;;;;;5014392;28;20026;-67
2021/12/20 02:10:03;;;;;;;20.47;9.83;;;-2.70;99.90;;;;;;5012959;28;20113;-68
2021/12/20 02:12:29;;;;;;;18.50;8.57;;;-2.60;99.90;;;;;;5014193;28;20029;-67
2021/12/20 02:14:55;;;;;;;16.00;7.95;;;-2.70;99.90;;;;;;5014371;28;20033;-67
2021/12/20 02:17:21;;;;;;;17.95;8.20;;;-2.70;99.90;;;;;;5013674;28;20386;-67
2021/12/20 02:19:47;;;;;;;17.63;8.40;;;-2.70;99.90;;;;;;5014587;28;20097;-67
2021/12/20 02:22:13;;;;;;;16.48;8.23;;;-2.70;99.90;;;;;;5013974;28;20080;-67
2021/12/20 02:24:39;;;;;;;17.70;8.93;;;-2.70;99.90;;;;;;5014326;28;20029;-67
2021/12/20 02:27:05;;;;;;;19.27;9.77;;;-2.70;99.90;;;;;;5015075;28;20153;-67
2021/12/20 02:29:46;;;;;;;15.57;7.50;;;-2.70;99.90;;;;;;5014970;28;20026;-67
2021/12/20 02:37:41;;;;;;;16.42;7.82;;;-2.60;99.90;;;;;;5016598;28;20037;-67
2021/12/20 02:40:07;;;;;;;15.25;7.80;;;-2.60;99.90;;;;;;5034216;28;20030;-67
2021/12/20 02:42:39;;;;;;;15.65;8.07;;;-2.70;99.90;;;;;;5018285;28;20032;-67
2021/12/20 02:45:12;;;;;;;19.52;9.00;;;-2.60;99.90;;;;;;5019104;28;20026;-67
2021/12/20 02:47:41;;;;;;;14.98;7.65;;;-2.60;99.90;;;;;;5018887;28;20359;-67
2021/12/20 02:50:08;;;;;;;20.05;8.70;;;-2.60;99.90;;;;;;5019031;28;20490;-67
2021/12/20 02:52:34;;;;;;;15.75;7.60;;;-2.70;99.90;;;;;;5019419;28;20026;-67
2021/12/20 02:55:00;;;;;;;18.95;7.70;;;-2.60;99.90;;;;;;5018390;28;20036;-67
2021/12/20 02:57:26;;;;;;;17.17;7.93;;;-2.60;99.90;;;;;;5021388;28;20018;-67
2021/12/20 02:59:52;;;;;;;20.25;10.63;;;-2.60;99.90;;;;;;5021485;28;20393;-67
2021/12/20 03:02:19;;;;;;;20.38;10.15;;;-2.70;99.90;;;;;;5037795;28;20022;-67
2021/12/20 03:04:45;;;;;;;22.45;10.05;;;-2.70;99.90;;;;;;5021699;28;20030;-67
2021/12/20 03:07:19;;;;;;;20.42;9.88;;;-2.70;99.90;;;;;;5022914;28;20112;-67
2021/12/20 03:09:51;;;;;;;18.70;9.30;;;-2.70;99.90;;;;;;5037545;28;20379;-67
2021/12/20 03:12:17;;;;;;;17.23;8.48;;;-2.70;99.90;;;;;;5022585;28;20042;-67
2021/12/20 03:14:46;;;;;;;15.43;7.78;;;-2.70;99.90;;;;;;5019594;28;20080;-68
2021/12/20 03:17:13;;;;;;;18.77;9.40;;;-2.70;99.90;;;;;;5017720;28;20109;-67
2021/12/20 03:19:39;;;;;;;19.13;8.80;;;-2.70;99.90;;;;;;5016434;28;20026;-68
2021/12/20 03:22:06;;;;;;;17.70;8.07;;;-2.70;99.90;;;;;;5017859;28;20025;-67
2021/12/20 03:24:32;;;;;;;19.23;8.90;;;-2.70;99.90;;;;;;5018086;28;20076;-68
2021/12/20 03:26:58;;;;;;;20.65;9.60;;;-2.70;99.90;;;;;;5016795;28;20026;-67
2021/12/20 03:29:24;;;;;;;22.90;10.15;;;-2.70;99.90;;;;;;5018120;28;20079;-67
2021/12/20 03:31:51;;;;;;;16.55;8.30;;;-2.70;99.90;;;;;;5020423;28;20033;-67
2021/12/20 03:34:18;;;;;;;18.45;8.90;;;-2.70;99.90;;;;;;5021927;28;20053;-67
2021/12/20 03:36:44;;;;;;;14.88;7.82;;;-2.80;99.90;;;;;;5035322;28;20117;-67
2021/12/20 03:39:10;;;;;;;16.45;7.63;;;-2.80;99.90;;;;;;5020459;28;20050;-67
2021/12/20 03:41:38;;;;;;;22.88;9.07;;;-2.80;99.90;;;;;;5021061;28;20412;-67
2021/12/20 03:44:05;;;;;;;17.67;9.07;;;-2.80;99.90;;;;;;5034907;28;20041;-67
2021/12/20 03:46:31;;;;;;;17.10;8.35;;;-2.90;99.90;;;;;;5018612;28;20417;-67
2021/12/20 03:48:58;;;;;;;19.00;9.23;;;-2.90;99.90;;;;;;5021647;28;20026;-67
2021/12/20 03:51:24;;;;;;;19.17;8.50;;;-2.90;99.90;;;;;;5023613;28;20030;-67
2021/12/20 03:53:50;;;;;;;17.45;7.28;;;-2.90;99.90;;;;;;5023273;28;20033;-67
2021/12/20 03:56:16;;;;;;;20.58;8.38;;;-2.90;99.90;;;;;;5023512;28;20082;-67
2021/12/20 03:58:42;;;;;;;16.30;7.65;;;-2.90;99.90;;;;;;5020801;28;20026;-67
2021/12/20 04:01:10;;;;;;;14.63;7.18;;;-2.90;99.90;;;;;;5017183;28;20097;-68
2021/12/20 04:03:37;;;;;;;17.63;8.35;;;-2.80;99.90;;;;;;5015483;28;20470;-68
2021/12/20 04:06:07;;;;;;;15.43;7.88;;;-2.80;99.90;;;;;;5016247;28;20026;-67
2021/12/20 04:08:34;;;;;;;17.25;8.00;;;-2.80;99.90;;;;;;5015973;28;20051;-68
2021/12/20 04:11:00;;;;;;;18.38;8.55;;;-2.80;99.90;;;;;;5016024;28;20482;-68
2021/12/20 04:13:27;;;;;;;20.95;9.27;;;-2.80;99.90;;;;;;5016155;28;20064;-67
2021/12/20 04:15:53;;;;;;;19.17;8.40;;;-2.80;99.90;;;;;;5016040;28;20079;-68
2021/12/20 04:18:22;;;;;;;19.27;9.38;;;-2.80;99.90;;;;;;5031227;28;20018;-68
2021/12/20 04:20:48;;;;;;;16.88;9.27;;;-2.80;99.90;;;;;;5016004;28;20015;-67
2021/12/20 04:23:14;;;;;;;19.00;9.43;;;-2.80;99.90;;;;;;5016395;28;20053;-67
2021/12/20 04:25:40;;;;;;;21.42;11.18;;;-2.80;99.90;;;;;;5015931;28;20033;-67
2021/12/20 04:28:06;;;;;;;23.63;10.18;;;-2.70;99.90;;;;;;5016042;28;20428;-67
2021/12/20 04:30:33;;;;;;;23.30;10.02;;;-2.70;99.90;;;;;;5015888;28;20075;-67
2021/12/20 04:32:59;;;;;;;19.80;10.02;;;-2.70;99.90;;;;;;5015948;28;20062;-67
2021/12/20 04:35:25;;;;;;;20.38;9.82;;;-2.70;99.90;;;;;;5016131;28;20363;-68
2021/12/20 04:37:52;;;;;;;24.80;9.82;;;-2.70;99.90;;;;;;5015889;28;20040;-67
2021/12/20 04:40:21;;;;;;;21.00;10.50;;;-2.70;99.90;;;;;;5016598;28;20356;-67
2021/12/20 04:42:49;;;;;;;20.08;9.48;;;-2.60;99.90;;;;;;5015721;28;20068;-67
2021/12/20 04:45:15;;;;;;;20.80;9.93;;;-2.60;99.90;;;;;;5014601;28;20026;-67
2021/12/20 04:47:41;;;;;;;22.00;9.93;;;-2.60;99.90;;;;;;5016172;28;20076;-67
2021/12/20 04:50:08;;;;;;;25.77;11.90;;;-2.60;99.90;;;;;;5015958;28;20029;-67
2021/12/20 04:52:34;;;;;;;22.50;11.10;;;-2.50;99.90;;;;;;5016181;28;20026;-67
2021/12/20 04:55:03;;;;;;;23.92;11.07;;;-2.50;99.90;;;;;;5016046;28;20502;-67
2021/12/20 04:57:29;;;;;;;21.98;11.27;;;-2.60;99.90;;;;;;5014174;28;20026;-67
2021/12/20 04:59:56;;;;;;;19.73;10.40;;;-2.60;99.90;;;;;;5015685;28;20022;-67
2021/12/20 05:02:21;;;;;;;22.33;10.30;;;-2.60;99.90;;;;;;5015806;28;20100;-68
2021/12/20 05:04:47;;;;;;;20.65;10.35;;;-2.60;99.90;;;;;;5015365;28;20022;-67
2021/12/20 05:07:13;;;;;;;17.95;10.07;;;-2.60;99.90;;;;;;5015140;28;20025;-67
2021/12/20 05:09:42;;;;;;;20.50;10.38;;;-2.60;99.90;;;;;;5015382;28;20515;-68
2021/12/20 05:12:13;;;;;;;25.30;11.73;;;-2.70;99.90;;;;;;5014869;28;20068;-67
2021/12/20 05:14:40;;;;;;;25.88;11.88;;;-2.70;99.90;;;;;;5015221;28;20022;-67
2021/12/20 05:17:07;;;;;;;224.23;50.33;;;-2.70;99.90;;;;;;5013919;28;20372;-68
2021/12/20 05:19:33;;;;;;;240.05;60.63;;;-2.70;99.90;;;;;;5014342;28;20065;-67
2021/12/20 05:21:59;;;;;;;148.25;41.17;;;-2.70;99.90;;;;;;5029563;28;20114;-68
2021/12/20 05:24:25;;;;;;;112.47;29.77;;;-2.70;99.90;;;;;;5014566;28;20539;-67
2021/12/20 05:26:51;;;;;;;60.80;20.65;;;-2.70;99.90;;;;;;5013416;28;20038;-66
2021/12/20 05:29:17;;;;;;;57.90;20.55;;;-2.70;99.90;;;;;;5014282;28;20025;-67
2021/12/20 05:31:43;;;;;;;55.63;18.45;;;-2.70;99.90;;;;;;5014220;28;20030;-67
2021/12/20 05:34:08;;;;;;;37.67;14.55;;;-2.60;99.90;;;;;;5014498;28;20378;-67
2021/12/20 05:36:34;;;;;;;28.75;13.25;;;-2.60;99.90;;;;;;5014187;28;20056;-67
2021/12/20 05:39:01;;;;;;;29.95;14.50;;;-2.50;99.90;;;;;;5014612;28;20030;-67
2021/12/20 05:41:26;;;;;;;27.13;12.90;;;-2.50;99.90;;;;;;5014464;28;20018;-67
2021/12/20 05:43:52;;;;;;;25.85;13.35;;;-2.50;99.90;;;;;;5014077;28;20159;-67
2021/12/20 05:46:18;;;;;;;22.85;10.98;;;-2.50;99.90;;;;;;5014019;28;20022;-67
2021/12/20 05:48:43;;;;;;;21.17;10.98;;;-2.50;99.90;;;;;;5013916;28;20028;-67
2021/12/20 05:51:09;;;;;;;22.75;10.02;;;-2.50;99.90;;;;;;5013920;28;20030;-68
2021/12/20 05:53:35;;;;;;;24.30;10.07;;;-2.50;99.90;;;;;;5029603;28;20113;-67
2021/12/20 05:56:00;;;;;;;21.30;10.18;;;-2.50;99.90;;;;;;5013880;28;20029;-67
2021/12/20 05:58:26;;;;;;;23.23;11.05;;;-2.50;99.90;;;;;;5013986;28;20013;-67
2021/12/20 06:00:52;;;;;;;21.63;10.88;;;-2.50;99.90;;;;;;5014085;28;20069;-67
2021/12/20 06:03:18;;;;;;;63.10;24.42;;;-2.50;99.90;;;;;;5013771;28;20028;-67
2021/12/20 06:05:44;;;;;;;44.72;20.63;;;-2.50;99.90;;;;;;5014313;28;20032;-67
2021/12/20 06:08:10;;;;;;;47.03;19.38;;;-2.50;99.90;;;;;;5013635;28;20464;-67
2021/12/20 06:10:36;;;;;;;35.88;14.85;;;-2.50;99.90;;;;;;5014007;28;20109;-67
2021/12/20 06:13:06;;;;;;;33.92;15.13;;;-2.50;99.90;;;;;;5013836;28;20095;-67
2021/12/20 06:15:32;;;;;;;27.90;12.88;;;-2.50;99.90;;;;;;5013654;28;20421;-67
2021/12/20 06:17:58;;;;;;;30.17;12.88;;;-2.50;99.90;;;;;;5013845;28;20025;-67
2021/12/20 06:20:24;;;;;;;24.45;12.45;;;-2.50;99.90;;;;;;5013897;28;20022;-67
2021/12/20 06:22:50;;;;;;;26.60;12.73;;;-2.40;99.90;;;;;;5014170;28;20046;-67
2021/12/20 06:25:16;;;;;;;23.15;11.73;;;-2.40;99.90;;;;;;5013774;28;20026;-67
2021/12/20 06:27:42;;;;;;;21.45;10.65;;;-2.40;99.90;;;;;;5013773;28;20061;-67
2021/12/20 06:30:10;;;;;;;21.95;10.45;;;-2.40;99.90;;;;;;5014054;28;20057;-67
2021/12/20 06:32:38;;;;;;;24.92;10.88;;;-2.40;99.90;;;;;;5017285;28;20022;-68
2021/12/20 06:35:05;;;;;;;24.27;11.82;;;-2.40;99.90;;;;;;5017822;28;20025;-67
2021/12/20 06:37:32;;;;;;;24.27;10.77;;;-2.40;99.90;;;;;;5017455;28;20413;-67
2021/12/20 06:39:58;;;;;;;20.17;9.68;;;-2.40;99.90;;;;;;5016472;28;20394;-67
2021/12/20 06:42:24;;;;;;;22.13;10.40;;;-2.40;99.90;;;;;;5017590;28;20034;-67
2021/12/20 06:44:50;;;;;;;23.55;10.55;;;-2.40;99.90;;;;;;5018004;28;20474;-67
2021/12/20 06:47:17;;;;;;;18.05;9.43;;;-2.40;99.90;;;;;;5017566;28;20494;-68
2021/12/20 06:49:43;;;;;;;19.85;9.40;;;-2.40;99.90;;;;;;5032936;28;20022;-68
2021/12/20 06:52:09;;;;;;;18.52;8.57;;;-2.40;99.90;;;;;;5017249;28;20025;-67
2021/12/20 06:54:35;;;;;;;23.65;10.82;;;-2.40;99.90;;;;;;5017308;28;20030;-67
2021/12/20 06:57:01;;;;;;;19.38;9.25;;;-2.40;99.90;;;;;;5017329;28;20072;-67
2021/12/20 06:59:27;;;;;;;26.42;10.68;;;-2.40;99.90;;;;;;5017229;28;20018;-67
2021/12/20 07:01:53;;;;;;;22.73;10.98;;;-2.40;99.90;;;;;;5017387;28;20073;-67
2021/12/20 07:04:19;;;;;;;27.23;11.57;;;-2.40;99.90;;;;;;5017309;28;20030;-68
2021/12/20 07:06:45;;;;;;;26.92;12.52;;;-2.40;99.90;;;;;;5017297;28;20026;-68
2021/12/20 07:09:11;;;;;;;25.45;12.38;;;-2.30;99.90;;;;;;5017296;28;20026;-67
2021/12/20 07:11:40;;;;;;;25.80;12.57;;;-2.30;99.90;;;;;;5016935;28;20482;-68
2021/12/20 07:14:07;;;;;;;28.15;13.07;;;-2.30;99.90;;;;;;5017219;28;20022;-67
2021/12/20 07:16:34;;;;;;;26.55;12.82;;;-2.30;99.90;;;;;;5015655;28;20026;-67
2021/12/20 07:19:00;;;;;;;24.90;11.85;;;-2.30;99.90;;;;;;5016800;28;20022;-67
2021/12/20 07:21:26;;;;;;;27.20;11.50;;;-2.30;99.90;;;;;;5016774;28;20021;-67
2021/12/20 07:23:51;;;;;;;24.63;12.75;;;-2.30;99.90;;;;;;5016608;28;20049;-67
2021/12/20 07:26:17;;;;;;;28.65;11.93;;;-2.30;99.90;;;;;;5015239;28;20030;-67
2021/12/20 07:28:44;;;;;;;25.25;12.07;;;-2.20;99.90;;;;;;5016430;28;20022;-68
2021/12/20 07:31:13;;;;;;;23.70;11.35;;;-2.20;99.90;;;;;;5016446;28;20021;-67
2021/12/20 07:33:40;;;;;;;23.63;11.50;;;-2.20;99.90;;;;;;5016366;28;20493;-67
2021/12/20 07:36:06;;;;;;;25.90;11.25;;;-2.20;99.90;;;;;;5016284;28;20034;-69
2021/12/20 07:38:34;;;;;;;23.23;11.02;;;-2.20;99.90;;;;;;5016283;28;20105;-68
2021/12/20 07:41:00;;;;;;;23.83;11.25;;;-2.10;99.90;;;;;;5016640;28;20018;-68
2021/12/20 07:43:27;;;;;;;31.13;12.63;;;-2.10;99.90;;;;;;5015854;28;20034;-68
2021/12/20 07:45:53;;;;;;;26.48;13.40;;;-2.10;99.90;;;;;;5016455;28;20489;-68
2021/12/20 07:48:21;;;;;;;24.48;12.38;;;-2.00;99.90;;;;;;5014826;28;20433;-67
2021/12/20 07:50:48;;;;;;;29.30;13.35;;;-2.10;99.90;;;;;;5016429;28;20482;-67
2021/12/20 07:53:14;;;;;;;27.73;13.13;;;-2.00;99.90;;;;;;5015944;28;20034;-67
2021/12/20 07:55:40;;;;;;;25.75;12.85;;;-2.00;99.90;;;;;;5016016;28;20055;-68
2021/12/20 07:58:06;;;;;;;26.98;12.82;;;-1.90;99.90;;;;;;5015893;28;20385;-68
2021/12/20 08:00:33;;;;;;;25.42;12.75;;;-1.90;99.90;;;;;;5016204;28;20030;-68
2021/12/20 08:02:59;;;;;;;23.13;12.90;;;-1.90;99.90;;;;;;5016411;28;20378;-68
2021/12/20 08:05:27;;;;;;;26.60;13.77;;;-1.90;99.90;;;;;;5015824;28;20028;-67
2021/12/20 08:07:53;;;;;;;28.30;14.98;;;-1.90;99.90;;;;;;5015720;28;20076;-68
2021/12/20 08:10:25;;;;;;;32.15;15.85;;;-1.80;99.90;;;;;;5015746;28;20069;-68
2021/12/20 08:12:51;;;;;;;31.77;15.48;;;-1.80;99.90;;;;;;5015876;28;20053;-68
2021/12/20 08:15:18;;;;;;;38.78;18.48;;;-1.80;99.90;;;;;;5015948;28;20026;-68
2021/12/20 08:17:43;;;;;;;32.08;15.55;;;-1.80;99.90;;;;;;5015555;28;20025;-68
2021/12/20 08:20:10;;;;;;;33.88;16.08;;;-1.70;99.90;;;;;;5015569;28;20105;-67
2021/12/20 08:22:36;;;;;;;32.17;16.02;;;-1.70;99.90;;;;;;5015478;28;20022;-68
2021/12/20 08:25:04;;;;;;;24.95;13.15;;;-1.70;99.90;;;;;;5015749;28;20479;-67
2021/12/20 08:27:29;;;;;;;26.30;13.75;;;-1.60;99.90;;;;;;5015580;28;20033;-68
2021/12/20 08:29:55;;;;;;;25.77;13.40;;;-1.50;99.90;;;;;;5015318;28;20076;-68
2021/12/20 08:32:21;;;;;;;26.90;13.23;;;-1.50;99.90;;;;;;5015314;28;20216;-68
2021/12/20 08:34:46;;;;;;;22.10;12.52;;;-1.50;99.90;;;;;;5015469;28;20099;-68
2021/12/20 08:37:12;;;;;;;22.90;11.60;;;-1.40;99.90;;;;;;5015265;28;20496;-68
2021/12/20 08:39:38;;;;;;;27.08;13.13;;;-1.40;99.90;;;;;;5015072;28;20088;-68
2021/12/20 08:42:05;;;;;;;27.25;14.13;;;-1.40;99.90;;;;;;5015093;28;20026;-68
2021/12/20 08:44:34;;;;;;;34.22;16.77;;;-1.30;99.90;;;;;;5015327;28;20508;-68
2021/12/20 08:47:00;;;;;;;34.15;16.95;;;-1.30;99.90;;;;;;5015038;28;20057;-68
2021/12/20 08:49:27;;;;;;;31.75;17.00;;;-1.20;99.90;;;;;;5014940;28;20068;-68
2021/12/20 08:51:55;;;;;;;31.33;15.23;;;-1.20;99.90;;;;;;5014927;28;20493;-68
2021/12/20 08:54:24;;;;;;;32.88;14.95;;;-1.20;99.90;;;;;;5012776;28;20045;-68
2021/12/20 08:56:49;;;;;;;28.52;15.02;;;-1.10;99.90;;;;;;5014920;28;20022;-68
2021/12/20 08:59:15;;;;;;;26.42;14.45;;;-1.10;99.90;;;;;;5014820;28;20097;-68
2021/12/20 09:01:41;;;;;;;29.67;14.57;;;-1.10;99.90;;;;;;5014741;28;20026;-68
2021/12/20 09:04:08;;;;;;;29.83;15.25;;;-1.00;99.90;;;;;;5014673;28;20452;-68
2021/12/20 09:06:38;;;;;;;26.30;14.95;;;-1.00;99.90;;;;;;5014738;28;20026;-68
2021/12/20 09:09:05;;;;;;;27.60;14.70;;;-0.90;99.90;;;;;;5013339;28;20026;-68
2021/12/20 09:11:31;;;;;;;38.00;17.98;;;-0.90;99.90;;;;;;5014577;28;20033;-68
2021/12/20 09:13:56;;;;;;;39.50;17.10;;;-0.80;99.90;;;;;;5014491;28;20100;-68
2021/12/20 09:16:22;;;;;;;30.30;15.80;;;-0.70;99.90;;;;;;5014504;28;20030;-68
2021/12/20 09:18:48;;;;;;;33.17;17.38;;;-0.70;99.90;;;;;;5014404;28;20037;-68
2021/12/20 09:21:15;;;;;;;35.35;16.52;;;-0.70;99.90;;;;;;5014430;28;20049;-68
2021/12/20 09:23:41;;;;;;;31.50;15.93;;;-0.70;99.90;;;;;;5014633;28;20533;-68
2021/12/20 09:26:07;;;;;;;32.58;16.55;;;-0.70;99.90;;;;;;5014611;28;20025;-68
2021/12/20 09:28:34;;;;;;;44.70;20.92;;;-0.70;99.90;;;;;;5014797;28;20028;-68
2021/12/20 09:31:02;;;;;;;55.00;24.80;;;-0.70;99.90;;;;;;5014554;28;20152;-68
2021/12/20 09:33:28;;;;;;;51.38;24.02;;;-0.60;99.90;;;;;;5014457;28;20124;-68
2021/12/20 09:35:54;;;;;;;47.33;23.02;;;-0.60;99.90;;;;;;5014417;28;20435;-68
2021/12/20 09:38:21;;;;;;;46.60;21.98;;;-0.50;99.90;;;;;;5014268;28;20611;-68
2021/12/20 09:43:52;;;;;;;61.70;32.20;;;-0.40;99.90;;;;;;5013326;28;20088;-68
2021/12/20 09:46:21;;;;;;;53.65;24.50;;;-0.40;99.90;;;;;;5014343;28;20022;-68
2021/12/20 09:48:49;;;;;;;40.30;19.27;;;-0.20;99.90;;;;;;5014359;28;20113;-68
2021/12/20 09:51:17;;;;;;;39.13;17.92;;;-0.10;99.90;;;;;;5014566;28;20029;-68
2021/12/20 09:53:43;;;;;;;35.30;17.35;;;0.10;99.90;;;;;;5014411;28;20050;-68
2021/12/20 09:56:10;;;;;;;40.45;19.42;;;0.30;99.90;;;;;;5014536;28;20046;-68
2021/12/20 09:58:39;;;;;;;33.65;17.73;;;0.30;99.90;;;;;;5029417;28;20026;-69
2021/12/20 10:01:07;;;;;;;34.95;18.05;;;0.30;99.90;;;;;;5014203;28;20017;-68
2021/12/20 10:03:33;;;;;;;30.40;14.73;;;0.30;99.90;;;;;;5014475;28;20022;-68
2021/12/20 10:06:00;;;;;;;34.08;15.55;;;0.30;99.90;;;;;;5014364;28;20176;-68
2021/12/20 10:08:33;;;;;;;30.15;14.90;;;0.30;99.90;;;;;;5014762;28;20037;-68
2021/12/20 10:11:05;;;;;;;29.75;14.30;;;0.30;99.90;;;;;;5013550;28;20555;-68
2021/12/20 10:13:34;;;;;;;33.72;14.52;;;0.30;99.90;;;;;;5015699;28;20030;-68
2021/12/20 10:16:06;;;;;;;28.85;15.32;;;0.40;99.90;;;;;;5016713;28;20037;-68
2021/12/20 10:18:35;;;;;;;26.98;13.48;;;0.50;99.90;;;;;;5016781;28;20028;-68
2021/12/20 10:21:02;;;;;;;29.25;14.30;;;0.60;99.90;;;;;;5016389;28;20033;-68
2021/12/20 10:23:31;;;;;;;28.63;13.55;;;0.80;99.90;;;;;;5016874;28;20026;-68
2021/12/20 10:26:01;;;;;;;28.45;14.88;;;0.90;99.90;;;;;;5017532;28;20367;-68
2021/12/20 10:28:34;;;;;;;32.25;15.52;;;1.00;99.90;;;;;;5031638;28;20065;-68
2021/12/20 10:31:11;;;;;;;29.90;14.65;;;1.10;99.90;;;;;;5016895;28;20426;-69
2021/12/20 10:33:37;;;;;;;30.60;15.93;;;1.10;99.90;;;;;;5016079;28;20026;-69
2021/12/20 10:36:13;;;;;;;36.47;15.98;;;1.20;99.90;;;;;;5016799;28;20371;-69
2021/12/20 10:38:42;;;;;;;28.58;15.30;;;1.30;99.90;;;;;;5015857;28;20022;-69
2021/12/20 10:41:35;;;;;;;32.45;15.73;;;1.50;99.90;;;;;;5014230;28;20022;-69
2021/12/20 10:44:17;;;;;;;30.73;15.43;;;1.60;99.90;;;;;;5016225;28;20061;-68
2021/12/20 10:47:01;;;;;;;29.40;15.15;;;1.70;99.90;;;;;;5015473;28;20479;-69
2021/12/20 10:49:29;;;;;;;29.65;14.40;;;1.80;99.90;;;;;;5015955;28;20026;-69
2021/12/20 10:51:56;;;;;;;26.90;14.02;;;1.90;99.90;;;;;;5016103;28;20029;-69
2021/12/20 10:54:29;;;;;;;26.58;13.77;;;1.90;99.90;;;;;;5014998;28;20022;-69
2021/12/20 10:57:01;;;;;;;34.42;16.42;;;2.00;99.90;;;;;;5015439;28;20371;-69
2021/12/20 10:59:29;;;;;;;32.95;16.40;;;2.20;99.90;;;;;;5015070;28;20018;-69
2021/12/20 11:04:42;;;;;;;36.38;16.23;;;2.30;99.90;;;;;;5015125;28;20101;-69
2021/12/20 11:09:36;;;;;;;39.90;18.17;;;2.40;99.90;;;;;;5015013;28;20018;-69
2021/12/20 11:12:20;;;;;;;35.75;16.17;;;2.40;99.90;;;;;;5013977;28;20084;-69
2021/12/20 11:14:50;;;;;;;35.85;17.38;;;2.40;99.90;;;;;;5013426;28;20030;-69
2021/12/20 11:17:20;;;;;;;32.13;15.77;;;2.50;99.90;;;;;;5015450;28;20018;-70
2021/12/20 11:19:47;;;;;;;33.80;16.83;;;2.50;99.90;;;;;;5017395;28;20099;-69
2021/12/20 11:22:18;;;;;;;42.55;16.60;;;2.60;99.90;;;;;;5016816;28;20018;-70
2021/12/20 11:24:44;;;;;;;44.20;20.30;;;2.60;99.90;;;;;;5016748;28;20053;-70
2021/12/20 11:27:16;;;;;;;32.05;18.65;;;2.60;99.90;;;;;;5016586;28;20153;-70
2021/12/20 11:29:44;;;;;;;38.55;16.90;;;2.60;99.90;;;;;;5016822;28;20025;-70
2021/12/20 11:32:10;;;;;;;30.20;14.68;;;2.60;99.90;;;;;;5016792;28;20109;-70
2021/12/20 11:34:38;;;;;;;29.08;15.20;;;2.60;99.90;;;;;;5016951;28;20109;-71
2021/12/20 11:37:04;;;;;;;27.20;14.23;;;2.60;99.90;;;;;;5016300;28;20026;-71
2021/12/20 11:39:30;;;;;;;29.23;14.05;;;2.60;99.90;;;;;;5015037;28;20433;-70
2021/12/20 11:41:57;;;;;;;66.75;27.60;;;2.60;99.90;;;;;;5016816;28;20089;-71
2021/12/20 11:44:27;;;;;;;32.03;16.15;;;2.60;99.90;;;;;;5014996;28;20036;-70
2021/12/20 11:46:55;;;;;;;28.42;16.20;;;2.60;99.90;;;;;;5016532;28;20026;-71
2021/12/20 11:49:23;;;;;;;30.75;16.33;;;2.50;99.90;;;;;;5014881;28;20025;-71
2021/12/20 11:52:03;;;;;;;28.95;14.43;;;2.50;99.90;;;;;;5016716;28;20048;-71
2021/12/20 11:54:45;;;;;;;38.78;15.55;;;2.50;99.90;;;;;;5016023;28;20077;-71
2021/12/20 11:57:35;;;;;;;26.70;13.93;;;2.40;99.90;;;;;;5016310;28;20018;-71
2021/12/20 12:00:11;;;;;;;32.70;14.90;;;2.40;99.90;;;;;;5016275;28;20470;-71
2021/12/20 12:02:43;;;;;;;28.42;13.15;;;2.50;99.90;;;;;;5015926;28;20026;-71
2021/12/20 12:05:11;;;;;;;31.08;13.15;;;2.60;99.90;;;;;;5015875;28;20097;-71
2021/12/20 12:07:38;;;;;;;26.77;12.75;;;2.60;99.90;;;;;;5016249;28;20030;-71
2021/12/20 12:10:11;;;;;;;26.02;12.82;;;2.60;99.90;;;;;;5015746;28;20022;-71
2021/12/20 12:12:42;;;;;;;21.00;11.15;;;2.50;99.90;;;;;;5015949;28;20053;-71
2021/12/20 12:15:15;;;;;;;19.70;10.47;;;2.50;99.90;;;;;;5016268;28;20022;-71
2021/12/20 12:17:57;;;;;;;18.60;10.02;;;2.50;99.90;;;;;;5014293;28;20018;-71
2021/12/20 12:20:50;;;;;;;21.90;10.98;;;2.40;99.90;;;;;;5014332;28;20425;-71
2021/12/20 12:23:28;;;;;;;31.42;13.65;;;2.40;99.90;;;;;;5011207;28;20030;-71
2021/12/20 12:26:00;;;;;;;21.80;11.23;;;2.40;99.90;;;;;;5015752;28;20117;-71
2021/12/20 12:28:48;;;;;;;21.63;11.77;;;2.50;99.90;;;;;;5013220;28;20086;-71
2021/12/20 12:31:14;;;;;;;24.10;10.65;;;2.50;99.90;;;;;;5004011;28;20034;-72
2021/12/20 12:33:41;;;;;;;19.02;9.45;;;2.60;99.90;;;;;;5016102;28;20080;-71
2021/12/20 12:36:10;;;;;;;19.90;10.35;;;2.70;99.90;;;;;;5014170;28;20026;-73
2021/12/20 12:38:47;;;;;;;26.75;12.85;;;2.70;99.90;;;;;;5014217;28;20026;-72
2021/12/20 12:41:23;;;;;;;33.65;14.55;;;2.70;99.90;;;;;;5014156;28;20029;-72
2021/12/20 12:44:06;;;;;;;26.10;13.95;;;2.80;99.90;;;;;;5014163;28;20390;-72
2021/12/20 12:46:43;;;;;;;25.33;13.25;;;2.90;99.90;;;;;;5014143;28;20026;-72
2021/12/20 12:49:45;;;;;;;33.78;17.98;;;3.00;99.90;;;;;;5014110;28;20022;-72
2021/12/20 12:52:17;;;;;;;26.58;14.52;;;3.00;99.90;;;;;;5002511;28;20038;-72
2021/12/20 12:54:52;;;;;;;30.98;13.50;;;3.10;99.90;;;;;;5015502;28;20029;-72